sensor_id;sensor_type;location;lat;lon;timestamp;P1;durP1;ratioP1;P2;durP2;ratioP2
53411;SDS011;39307;52.870;13.660;2022-08-30T00:02:19;3.88;;;2.20;;
53411;SDS011;39307;52.870;13.660;2022-08-30T00:04:45;2.63;;;1.93;;
53411;SDS011;39307;52.870;13.660;2022-08-30T00:07:12;3.65;;;1.73;;
53411;SDS011;39307;52.870;13.660;2022-08-30T00:09:38;4.80;;;1.95;;
53411;SDS011;39307;52.870;13.660;2022-08-30T00:12:05;3.78;;;2.22;;
53411;SDS011;39307;52.870;13.660;2022-08-30T00:14:31;3.50;;;2.30;;
53411;SDS011;39307;52.870;13.660;2022-08-30T00:16:57;2.95;;;2.00;;
53411;SDS011;39307;52.870;13.660;2022-08-30T00:19:24;3.50;;;2.35;;
53411;SDS011;39307;52.870;13.660;2022-08-30T00:21:50;4.00;;;2.30;;
53411;SDS011;39307;52.870;13.660;2022-08-30T00:24:16;3.50;;;2.40;;
53411;SDS011;39307;52.870;13.660;2022-08-30T00:26:42;3.40;;;2.17;;
53411;SDS011;39307;52.870;13.660;2022-08-30T00:29:09;3.30;;;2.13;;
53411;SDS011;39307;52.870;13.660;2022-08-30T00:31:35;3.07;;;1.90;;
53411;SDS011;39307;52.870;13.660;2022-08-30T00:34:02;3.30;;;2.10;;
53411;SDS011;39307;52.870;13.660;2022-08-30T00:36:28;3.45;;;2.13;;
53411;SDS011;39307;52.870;13.660;2022-08-30T00:38:55;3.33;;;1.90;;
53411;SDS011;39307;52.870;13.660;2022-08-30T00:41:21;3.05;;;2.20;;
53411;SDS011;39307;52.870;13.660;2022-08-30T00:43:47;3.05;;;2.13;;
53411;SDS011;39307;52.870;13.660;2022-08-30T00:46:13;3.28;;;2.28;;
53411;SDS011;39307;52.870;13.660;2022-08-30T00:48:41;4.07;;;2.58;;
53411;SDS011;39307;52.870;13.660;2022-08-30T00:51:12;4.10;;;2.20;;
53411;SDS011;39307;52.870;13.660;2022-08-30T00:53:41;3.45;;;2.08;;
53411;SDS011;39307;52.870;13.660;2022-08-30T00:56:12;3.92;;;2.33;;
53411;SDS011;39307;52.870;13.660;2022-08-30T00:58:41;5.13;;;2.30;;
53411;SDS011;39307;52.870;13.660;2022-08-30T01:01:11;3.63;;;2.38;;
53411;SDS011;39307;52.870;13.660;2022-08-30T01:03:38;3.70;;;2.22;;
53411;SDS011;39307;52.870;13.660;2022-08-30T01:06:06;2.78;;;2.15;;
53411;SDS011;39307;52.870;13.660;2022-08-30T01:08:32;4.78;;;2.30;;
53411;SDS011;39307;52.870;13.660;2022-08-30T01:10:59;3.33;;;2.30;;
53411;SDS011;39307;52.870;13.660;2022-08-30T01:13:27;3.67;;;2.55;;
53411;SDS011;39307;52.870;13.660;2022-08-30T01:15:53;3.72;;;2.40;;
53411;SDS011;39307;52.870;13.660;2022-08-30T01:18:20;6.32;;;2.60;;
53411;SDS011;39307;52.870;13.660;2022-08-30T01:20:53;3.20;;;2.30;;
53411;SDS011;39307;52.870;13.660;2022-08-30T01:23:41;3.70;;;2.47;;
53411;SDS011;39307;52.870;13.660;2022-08-30T01:26:09;4.13;;;2.70;;
53411;SDS011;39307;52.870;13.660;2022-08-30T01:28:37;4.18;;;2.65;;
53411;SDS011;39307;52.870;13.660;2022-08-30T01:31:05;4.30;;;2.63;;
53411;SDS011;39307;52.870;13.660;2022-08-30T01:33:32;4.47;;;2.50;;
53411;SDS011;39307;52.870;13.660;2022-08-30T01:36:02;3.53;;;2.53;;
53411;SDS011;39307;52.870;13.660;2022-08-30T01:38:35;4.75;;;3.00;;
53411;SDS011;39307;52.870;13.660;2022-08-30T01:43:41;4.25;;;2.80;;
53411;SDS011;39307;52.870;13.660;2022-08-30T01:46:08;4.95;;;2.70;;
53411;SDS011;39307;52.870;13.660;2022-08-30T01:48:34;4.30;;;2.80;;
53411;SDS011;39307;52.870;13.660;2022-08-30T01:51:00;4.28;;;2.75;;
53411;SDS011;39307;52.870;13.660;2022-08-30T01:53:27;4.30;;;2.50;;
53411;SDS011;39307;52.870;13.660;2022-08-30T01:55:53;4.00;;;2.70;;
53411;SDS011;39307;52.870;13.660;2022-08-30T01:58:20;4.25;;;2.95;;
53411;SDS011;39307;52.870;13.660;2022-08-30T02:00:46;4.13;;;2.60;;
53411;SDS011;39307;52.870;13.660;2022-08-30T02:03:13;5.05;;;2.50;;
53411;SDS011;39307;52.870;13.660;2022-08-30T02:05:39;3.58;;;2.40;;
53411;SDS011;39307;52.870;13.660;2022-08-30T02:08:06;3.85;;;2.65;;
53411;SDS011;39307;52.870;13.660;2022-08-30T02:10:32;4.63;;;2.77;;
53411;SDS011;39307;52.870;13.660;2022-08-30T02:12:58;4.15;;;2.90;;
53411;SDS011;39307;52.870;13.660;2022-08-30T02:15:25;4.32;;;2.67;;
53411;SDS011;39307;52.870;13.660;2022-08-30T02:17:51;3.80;;;2.85;;
53411;SDS011;39307;52.870;13.660;2022-08-30T02:20:17;3.63;;;2.40;;
53411;SDS011;39307;52.870;13.660;2022-08-30T02:22:44;4.57;;;2.40;;
53411;SDS011;39307;52.870;13.660;2022-08-30T02:25:10;3.50;;;2.30;;
53411;SDS011;39307;52.870;13.660;2022-08-30T02:27:37;4.30;;;2.30;;
53411;SDS011;39307;52.870;13.660;2022-08-30T02:30:05;3.17;;;2.30;;
53411;SDS011;39307;52.870;13.660;2022-08-30T02:32:32;3.35;;;2.30;;
53411;SDS011;39307;52.870;13.660;2022-08-30T02:34:59;3.72;;;2.17;;
53411;SDS011;39307;52.870;13.660;2022-08-30T02:37:25;4.10;;;2.47;;
53411;SDS011;39307;52.870;13.660;2022-08-30T02:39:52;3.63;;;2.38;;
53411;SDS011;39307;52.870;13.660;2022-08-30T02:42:18;3.75;;;2.50;;
53411;SDS011;39307;52.870;13.660;2022-08-30T02:44:44;4.00;;;2.67;;
53411;SDS011;39307;52.870;13.660;2022-08-30T02:47:11;3.25;;;2.47;;
53411;SDS011;39307;52.870;13.660;2022-08-30T02:49:37;3.63;;;2.43;;
53411;SDS011;39307;52.870;13.660;2022-08-30T02:52:03;4.25;;;2.75;;
53411;SDS011;39307;52.870;13.660;2022-08-30T02:54:30;6.25;;;3.00;;
53411;SDS011;39307;52.870;13.660;2022-08-30T02:56:56;3.85;;;2.42;;
53411;SDS011;39307;52.870;13.660;2022-08-30T02:59:23;4.22;;;2.80;;
53411;SDS011;39307;52.870;13.660;2022-08-30T03:01:49;4.10;;;2.80;;
53411;SDS011;39307;52.870;13.660;2022-08-30T03:04:15;5.65;;;2.80;;
53411;SDS011;39307;52.870;13.660;2022-08-30T03:06:42;4.13;;;2.88;;
53411;SDS011;39307;52.870;13.660;2022-08-30T03:09:08;4.35;;;3.00;;
53411;SDS011;39307;52.870;13.660;2022-08-30T03:11:34;4.57;;;2.72;;
53411;SDS011;39307;52.870;13.660;2022-08-30T03:14:00;4.57;;;2.70;;
53411;SDS011;39307;52.870;13.660;2022-08-30T03:16:27;3.63;;;2.70;;
53411;SDS011;39307;52.870;13.660;2022-08-30T03:18:53;4.68;;;2.88;;
53411;SDS011;39307;52.870;13.660;2022-08-30T03:21:19;4.67;;;3.00;;
53411;SDS011;39307;52.870;13.660;2022-08-30T03:23:46;4.43;;;2.85;;
53411;SDS011;39307;52.870;13.660;2022-08-30T03:26:12;3.85;;;2.88;;
53411;SDS011;39307;52.870;13.660;2022-08-30T03:28:38;4.25;;;2.78;;
53411;SDS011;39307;52.870;13.660;2022-08-30T03:31:05;5.07;;;3.00;;
53411;SDS011;39307;52.870;13.660;2022-08-30T03:33:32;4.22;;;2.88;;
53411;SDS011;39307;52.870;13.660;2022-08-30T03:35:58;4.85;;;2.60;;
53411;SDS011;39307;52.870;13.660;2022-08-30T03:38:25;4.00;;;2.70;;
53411;SDS011;39307;52.870;13.660;2022-08-30T03:40:51;4.18;;;2.60;;
53411;SDS011;39307;52.870;13.660;2022-08-30T03:43:17;4.37;;;2.70;;
53411;SDS011;39307;52.870;13.660;2022-08-30T03:45:43;4.70;;;2.90;;
53411;SDS011;39307;52.870;13.660;2022-08-30T03:48:10;3.80;;;2.55;;
53411;SDS011;39307;52.870;13.660;2022-08-30T03:50:36;4.53;;;2.50;;
53411;SDS011;39307;52.870;13.660;2022-08-30T03:53:03;4.05;;;2.67;;
53411;SDS011;39307;52.870;13.660;2022-08-30T03:55:29;5.90;;;2.88;;
53411;SDS011;39307;52.870;13.660;2022-08-30T03:57:55;3.92;;;2.67;;
53411;SDS011;39307;52.870;13.660;2022-08-30T04:00:22;4.18;;;2.78;;
53411;SDS011;39307;52.870;13.660;2022-08-30T04:02:48;4.35;;;2.80;;
53411;SDS011;39307;52.870;13.660;2022-08-30T04:05:15;4.28;;;3.05;;
53411;SDS011;39307;52.870;13.660;2022-08-30T04:07:41;3.83;;;2.90;;
53411;SDS011;39307;52.870;13.660;2022-08-30T04:10:08;4.22;;;2.70;;
53411;SDS011;39307;52.870;13.660;2022-08-30T04:12:35;4.97;;;2.97;;
53411;SDS011;39307;52.870;13.660;2022-08-30T04:15:02;4.97;;;3.10;;
53411;SDS011;39307;52.870;13.660;2022-08-30T04:17:28;4.30;;;2.72;;
53411;SDS011;39307;52.870;13.660;2022-08-30T04:19:55;4.30;;;2.85;;
53411;SDS011;39307;52.870;13.660;2022-08-30T04:22:21;4.60;;;3.10;;
53411;SDS011;39307;52.870;13.660;2022-08-30T04:24:47;4.25;;;2.95;;
53411;SDS011;39307;52.870;13.660;2022-08-30T04:27:13;4.93;;;2.65;;
53411;SDS011;39307;52.870;13.660;2022-08-30T04:29:40;4.00;;;3.10;;
53411;SDS011;39307;52.870;13.660;2022-08-30T04:32:06;4.10;;;3.00;;
53411;SDS011;39307;52.870;13.660;2022-08-30T04:34:32;5.40;;;3.03;;
53411;SDS011;39307;52.870;13.660;2022-08-30T04:36:59;3.80;;;2.63;;
53411;SDS011;39307;52.870;13.660;2022-08-30T04:39:25;4.18;;;3.00;;
53411;SDS011;39307;52.870;13.660;2022-08-30T04:41:52;3.53;;;2.53;;
53411;SDS011;39307;52.870;13.660;2022-08-30T04:44:18;4.50;;;2.63;;
53411;SDS011;39307;52.870;13.660;2022-08-30T04:46:45;4.32;;;2.88;;
53411;SDS011;39307;52.870;13.660;2022-08-30T04:49:12;3.60;;;2.63;;
53411;SDS011;39307;52.870;13.660;2022-08-30T04:51:39;3.42;;;2.58;;
53411;SDS011;39307;52.870;13.660;2022-08-30T04:54:06;4.25;;;2.88;;
53411;SDS011;39307;52.870;13.660;2022-08-30T04:56:33;3.83;;;2.63;;
53411;SDS011;39307;52.870;13.660;2022-08-30T04:58:59;4.45;;;2.92;;
53411;SDS011;39307;52.870;13.660;2022-08-30T05:01:26;4.32;;;2.92;;
53411;SDS011;39307;52.870;13.660;2022-08-30T05:03:54;4.43;;;2.92;;
53411;SDS011;39307;52.870;13.660;2022-08-30T05:06:22;4.93;;;2.65;;
53411;SDS011;39307;52.870;13.660;2022-08-30T05:08:49;4.20;;;2.80;;
53411;SDS011;39307;52.870;13.660;2022-08-30T05:11:15;5.05;;;3.00;;
53411;SDS011;39307;52.870;13.660;2022-08-30T05:13:42;4.05;;;2.83;;
53411;SDS011;39307;52.870;13.660;2022-08-30T05:16:09;4.15;;;2.60;;
53411;SDS011;39307;52.870;13.660;2022-08-30T05:18:35;3.72;;;2.55;;
53411;SDS011;39307;52.870;13.660;2022-08-30T05:21:04;3.25;;;2.28;;
53411;SDS011;39307;52.870;13.660;2022-08-30T05:23:36;8.43;;;2.03;;
53411;SDS011;39307;52.870;13.660;2022-08-30T05:26:04;2.60;;;1.50;;
53411;SDS011;39307;52.870;13.660;2022-08-30T05:28:50;2.38;;;1.65;;
53411;SDS011;39307;52.870;13.660;2022-08-30T05:31:19;4.53;;;1.80;;
53411;SDS011;39307;52.870;13.660;2022-08-30T05:33:50;3.15;;;1.77;;
53411;SDS011;39307;52.870;13.660;2022-08-30T05:36:19;4.15;;;1.77;;
53411;SDS011;39307;52.870;13.660;2022-08-30T05:38:47;2.50;;;1.80;;
53411;SDS011;39307;52.870;13.660;2022-08-30T05:41:14;3.03;;;1.80;;
53411;SDS011;39307;52.870;13.660;2022-08-30T05:43:43;2.80;;;2.08;;
53411;SDS011;39307;52.870;13.660;2022-08-30T05:46:11;2.72;;;1.40;;
53411;SDS011;39307;52.870;13.660;2022-08-30T05:48:39;3.67;;;1.45;;
53411;SDS011;39307;52.870;13.660;2022-08-30T05:53:35;3.20;;;1.70;;
53411;SDS011;39307;52.870;13.660;2022-08-30T05:56:03;2.50;;;1.67;;
53411;SDS011;39307;52.870;13.660;2022-08-30T05:58:32;3.15;;;1.67;;
53411;SDS011;39307;52.870;13.660;2022-08-30T06:00:58;3.63;;;1.80;;
53411;SDS011;39307;52.870;13.660;2022-08-30T06:03:26;2.40;;;1.40;;
53411;SDS011;39307;52.870;13.660;2022-08-30T06:05:52;2.72;;;1.73;;
53411;SDS011;39307;52.870;13.660;2022-08-30T06:08:19;3.53;;;1.60;;
53411;SDS011;39307;52.870;13.660;2022-08-30T06:10:46;3.72;;;2.10;;
53411;SDS011;39307;52.870;13.660;2022-08-30T06:13:12;5.05;;;2.33;;
53411;SDS011;39307;52.870;13.660;2022-08-30T06:15:39;3.55;;;1.60;;
53411;SDS011;39307;52.870;13.660;2022-08-30T06:18:06;2.90;;;1.00;;
53411;SDS011;39307;52.870;13.660;2022-08-30T06:20:32;1.40;;;0.80;;
53411;SDS011;39307;52.870;13.660;2022-08-30T06:23:04;2.63;;;1.00;;
53411;SDS011;39307;52.870;13.660;2022-08-30T06:25:30;1.60;;;0.80;;
53411;SDS011;39307;52.870;13.660;2022-08-30T06:27:56;3.00;;;0.85;;
53411;SDS011;39307;52.870;13.660;2022-08-30T06:30:23;1.10;;;0.70;;
53411;SDS011;39307;52.870;13.660;2022-08-30T06:32:49;1.67;;;0.80;;
53411;SDS011;39307;52.870;13.660;2022-08-30T06:35:16;2.10;;;0.90;;
53411;SDS011;39307;52.870;13.660;2022-08-30T06:37:42;2.83;;;1.98;;
53411;SDS011;39307;52.870;13.660;2022-08-30T06:40:08;2.20;;;0.70;;
53411;SDS011;39307;52.870;13.660;2022-08-30T06:42:35;1.73;;;0.63;;
53411;SDS011;39307;52.870;13.660;2022-08-30T06:45:02;1.65;;;0.68;;
53411;SDS011;39307;52.870;13.660;2022-08-30T06:47:29;2.42;;;0.50;;
53411;SDS011;39307;52.870;13.660;2022-08-30T06:49:56;0.80;;;0.50;;
53411;SDS011;39307;52.870;13.660;2022-08-30T06:52:23;0.75;;;0.60;;
53411;SDS011;39307;52.870;13.660;2022-08-30T06:54:49;1.90;;;0.50;;
53411;SDS011;39307;52.870;13.660;2022-08-30T06:57:16;2.63;;;1.20;;
53411;SDS011;39307;52.870;13.660;2022-08-30T06:59:43;1.85;;;0.85;;
53411;SDS011;39307;52.870;13.660;2022-08-30T07:02:09;1.98;;;0.93;;
53411;SDS011;39307;52.870;13.660;2022-08-30T07:04:35;1.13;;;0.45;;
53411;SDS011;39307;52.870;13.660;2022-08-30T07:07:02;1.48;;;0.60;;
53411;SDS011;39307;52.870;13.660;2022-08-30T07:09:28;1.70;;;0.70;;
53411;SDS011;39307;52.870;13.660;2022-08-30T07:11:55;1.90;;;0.70;;
53411;SDS011;39307;52.870;13.660;2022-08-30T07:14:26;1.40;;;0.65;;
53411;SDS011;39307;52.870;13.660;2022-08-30T07:16:52;3.92;;;2.25;;
53411;SDS011;39307;52.870;13.660;2022-08-30T07:19:19;3.47;;;0.80;;
53411;SDS011;39307;52.870;13.660;2022-08-30T07:21:46;1.87;;;0.70;;
53411;SDS011;39307;52.870;13.660;2022-08-30T07:24:13;1.20;;;0.60;;
53411;SDS011;39307;52.870;13.660;2022-08-30T07:26:42;2.17;;;0.80;;
53411;SDS011;39307;52.870;13.660;2022-08-30T07:29:13;2.13;;;0.80;;
53411;SDS011;39307;52.870;13.660;2022-08-30T07:31:40;3.00;;;1.25;;
53411;SDS011;39307;52.870;13.660;2022-08-30T07:34:06;4.40;;;1.97;;
53411;SDS011;39307;52.870;13.660;2022-08-30T07:36:34;3.95;;;1.95;;
53411;SDS011;39307;52.870;13.660;2022-08-30T07:39:01;2.20;;;0.80;;
53411;SDS011;39307;52.870;13.660;2022-08-30T07:41:29;1.70;;;0.75;;
53411;SDS011;39307;52.870;13.660;2022-08-30T07:43:58;2.10;;;0.80;;
53411;SDS011;39307;52.870;13.660;2022-08-30T07:46:25;1.98;;;0.95;;
53411;SDS011;39307;52.870;13.660;2022-08-30T07:48:51;1.75;;;0.57;;
53411;SDS011;39307;52.870;13.660;2022-08-30T07:51:18;1.45;;;0.60;;
53411;SDS011;39307;52.870;13.660;2022-08-30T07:53:46;1.27;;;0.68;;
53411;SDS011;39307;52.870;13.660;2022-08-30T07:56:12;0.77;;;0.50;;
53411;SDS011;39307;52.870;13.660;2022-08-30T07:58:39;1.60;;;0.70;;
53411;SDS011;39307;52.870;13.660;2022-08-30T08:01:06;2.40;;;0.70;;
53411;SDS011;39307;52.870;13.660;2022-08-30T08:03:34;1.60;;;0.60;;
53411;SDS011;39307;52.870;13.660;2022-08-30T08:06:03;0.90;;;0.50;;
53411;SDS011;39307;52.870;13.660;2022-08-30T08:08:31;1.35;;;0.60;;
53411;SDS011;39307;52.870;13.660;2022-08-30T08:10:59;2.95;;;0.70;;
53411;SDS011;39307;52.870;13.660;2022-08-30T08:13:39;2.83;;;0.65;;
53411;SDS011;39307;52.870;13.660;2022-08-30T08:16:06;0.95;;;0.50;;
53411;SDS011;39307;52.870;13.660;2022-08-30T08:18:33;1.05;;;0.50;;
53411;SDS011;39307;52.870;13.660;2022-08-30T08:21:00;1.30;;;0.50;;
53411;SDS011;39307;52.870;13.660;2022-08-30T08:23:26;0.73;;;0.57;;
53411;SDS011;39307;52.870;13.660;2022-08-30T08:25:53;1.63;;;0.50;;
53411;SDS011;39307;52.870;13.660;2022-08-30T08:28:19;1.02;;;0.50;;
53411;SDS011;39307;52.870;13.660;2022-08-30T08:30:46;1.10;;;0.50;;
53411;SDS011;39307;52.870;13.660;2022-08-30T08:33:13;1.65;;;0.70;;
53411;SDS011;39307;52.870;13.660;2022-08-30T08:35:40;1.10;;;0.70;;
53411;SDS011;39307;52.870;13.660;2022-08-30T08:38:07;1.20;;;0.40;;
53411;SDS011;39307;52.870;13.660;2022-08-30T08:40:37;1.00;;;0.57;;
53411;SDS011;39307;52.870;13.660;2022-08-30T08:43:11;1.65;;;0.55;;
53411;SDS011;39307;52.870;13.660;2022-08-30T08:48:42;0.68;;;0.40;;
53411;SDS011;39307;52.870;13.660;2022-08-30T08:51:26;1.67;;;0.98;;
53411;SDS011;39307;52.870;13.660;2022-08-30T08:54:10;2.10;;;0.60;;
53411;SDS011;39307;52.870;13.660;2022-08-30T08:56:40;1.20;;;0.50;;
53411;SDS011;39307;52.870;13.660;2022-08-30T08:59:07;1.73;;;0.40;;
53411;SDS011;39307;52.870;13.660;2022-08-30T09:01:35;1.20;;;0.40;;
53411;SDS011;39307;52.870;13.660;2022-08-30T09:04:02;0.70;;;0.50;;
53411;SDS011;39307;52.870;13.660;2022-08-30T09:06:54;2.10;;;0.68;;
53411;SDS011;39307;52.870;13.660;2022-08-30T09:09:31;1.23;;;0.47;;
53411;SDS011;39307;52.870;13.660;2022-08-30T09:12:02;1.02;;;0.45;;
53411;SDS011;39307;52.870;13.660;2022-08-30T09:14:33;1.00;;;0.50;;
53411;SDS011;39307;52.870;13.660;2022-08-30T09:17:05;0.88;;;0.52;;
53411;SDS011;39307;52.870;13.660;2022-08-30T09:19:35;1.83;;;0.68;;
53411;SDS011;39307;52.870;13.660;2022-08-30T09:24:51;1.73;;;0.68;;
53411;SDS011;39307;52.870;13.660;2022-08-30T09:29:58;2.45;;;0.90;;
53411;SDS011;39307;52.870;13.660;2022-08-30T09:32:31;1.15;;;0.57;;
53411;SDS011;39307;52.870;13.660;2022-08-30T09:35:00;1.00;;;0.60;;
53411;SDS011;39307;52.870;13.660;2022-08-30T09:37:32;1.25;;;0.70;;
53411;SDS011;39307;52.870;13.660;2022-08-30T09:40:08;1.33;;;0.70;;
53411;SDS011;39307;52.870;13.660;2022-08-30T09:43:02;2.42;;;0.75;;
53411;SDS011;39307;52.870;13.660;2022-08-30T09:46:03;1.60;;;0.73;;
53411;SDS011;39307;52.870;13.660;2022-08-30T09:48:39;2.97;;;1.30;;
53411;SDS011;39307;52.870;13.660;2022-08-30T09:59:21;1.45;;;0.80;;
53411;SDS011;39307;52.870;13.660;2022-08-30T10:04:45;1.63;;;0.95;;
53411;SDS011;39307;52.870;13.660;2022-08-30T10:07:27;2.67;;;0.90;;
53411;SDS011;39307;52.870;13.660;2022-08-30T10:16:08;1.92;;;1.17;;
53411;SDS011;39307;52.870;13.660;2022-08-30T10:24:48;2.70;;;1.30;;
53411;SDS011;39307;52.870;13.660;2022-08-30T10:27:25;2.88;;;1.30;;
53411;SDS011;39307;52.870;13.660;2022-08-30T10:30:00;3.22;;;1.45;;
53411;SDS011;39307;52.870;13.660;2022-08-30T10:32:36;1.92;;;1.20;;
53411;SDS011;39307;52.870;13.660;2022-08-30T10:35:23;3.20;;;1.53;;
53411;SDS011;39307;52.870;13.660;2022-08-30T10:38:03;2.45;;;1.50;;
53411;SDS011;39307;52.870;13.660;2022-08-30T10:40:36;3.20;;;1.93;;
53411;SDS011;39307;52.870;13.660;2022-08-30T10:43:10;3.38;;;1.92;;
53411;SDS011;39307;52.870;13.660;2022-08-30T10:45:52;4.45;;;2.28;;
53411;SDS011;39307;52.870;13.660;2022-08-30T10:48:38;4.13;;;2.00;;
53411;SDS011;39307;52.870;13.660;2022-08-30T10:51:32;4.60;;;2.05;;
53411;SDS011;39307;52.870;13.660;2022-08-30T10:54:07;4.25;;;2.20;;
53411;SDS011;39307;52.870;13.660;2022-08-30T10:56:43;4.15;;;2.47;;
53411;SDS011;39307;52.870;13.660;2022-08-30T10:59:15;4.80;;;2.57;;
53411;SDS011;39307;52.870;13.660;2022-08-30T11:01:55;4.18;;;2.25;;
53411;SDS011;39307;52.870;13.660;2022-08-30T11:10:25;3.17;;;2.10;;
53411;SDS011;39307;52.870;13.660;2022-08-30T11:12:58;4.05;;;2.30;;
53411;SDS011;39307;52.870;13.660;2022-08-30T11:15:29;3.30;;;1.90;;
53411;SDS011;39307;52.870;13.660;2022-08-30T11:18:02;2.83;;;1.85;;
53411;SDS011;39307;52.870;13.660;2022-08-30T11:20:44;4.55;;;2.53;;
53411;SDS011;39307;52.870;13.660;2022-08-30T11:23:31;4.90;;;2.43;;
53411;SDS011;39307;52.870;13.660;2022-08-30T11:26:00;4.82;;;2.80;;
53411;SDS011;39307;52.870;13.660;2022-08-30T11:31:07;3.80;;;2.10;;
53411;SDS011;39307;52.870;13.660;2022-08-30T11:33:41;4.00;;;2.58;;
53411;SDS011;39307;52.870;13.660;2022-08-30T11:36:09;2.75;;;1.48;;
53411;SDS011;39307;52.870;13.660;2022-08-30T11:41:11;2.88;;;1.48;;
53411;SDS011;39307;52.870;13.660;2022-08-30T11:43:53;3.30;;;1.63;;
53411;SDS011;39307;52.870;13.660;2022-08-30T11:46:33;3.25;;;1.77;;
53411;SDS011;39307;52.870;13.660;2022-08-30T11:57:11;3.03;;;1.77;;
53411;SDS011;39307;52.870;13.660;2022-08-30T12:02:46;4.28;;;1.90;;
53411;SDS011;39307;52.870;13.660;2022-08-30T12:08:01;2.58;;;1.58;;
53411;SDS011;39307;52.870;13.660;2022-08-30T12:10:41;5.07;;;1.95;;
53411;SDS011;39307;52.870;13.660;2022-08-30T12:16:01;3.92;;;2.00;;
53411;SDS011;39307;52.870;13.660;2022-08-30T12:18:34;3.13;;;1.85;;
53411;SDS011;39307;52.870;13.660;2022-08-30T12:26:33;2.93;;;1.20;;
53411;SDS011;39307;52.870;13.660;2022-08-30T12:29:15;2.03;;;1.20;;
53411;SDS011;39307;52.870;13.660;2022-08-30T12:31:52;1.90;;;0.90;;
53411;SDS011;39307;52.870;13.660;2022-08-30T12:37:05;3.42;;;1.60;;
53411;SDS011;39307;52.870;13.660;2022-08-30T12:39:35;2.77;;;1.30;;
53411;SDS011;39307;52.870;13.660;2022-08-30T12:44:42;3.05;;;1.20;;
53411;SDS011;39307;52.870;13.660;2022-08-30T12:47:08;2.35;;;1.10;;
53411;SDS011;39307;52.870;13.660;2022-08-30T12:49:37;2.60;;;0.95;;
53411;SDS011;39307;52.870;13.660;2022-08-30T12:52:15;3.92;;;1.20;;
53411;SDS011;39307;52.870;13.660;2022-08-30T12:54:42;1.83;;;0.82;;
53411;SDS011;39307;52.870;13.660;2022-08-30T12:57:08;2.80;;;1.20;;
53411;SDS011;39307;52.870;13.660;2022-08-30T13:02:17;2.92;;;1.15;;
53411;SDS011;39307;52.870;13.660;2022-08-30T13:04:49;3.38;;;1.27;;
53411;SDS011;39307;52.870;13.660;2022-08-30T13:07:30;3.15;;;1.05;;
53411;SDS011;39307;52.870;13.660;2022-08-30T13:10:06;2.20;;;1.20;;
53411;SDS011;39307;52.870;13.660;2022-08-30T13:12:41;2.70;;;1.00;;
53411;SDS011;39307;52.870;13.660;2022-08-30T13:15:33;3.07;;;1.30;;
53411;SDS011;39307;52.870;13.660;2022-08-30T13:18:29;3.28;;;1.50;;
53411;SDS011;39307;52.870;13.660;2022-08-30T13:23:50;2.20;;;1.20;;
53411;SDS011;39307;52.870;13.660;2022-08-30T13:26:20;2.17;;;1.30;;
53411;SDS011;39307;52.870;13.660;2022-08-30T13:28:48;3.60;;;1.30;;
53411;SDS011;39307;52.870;13.660;2022-08-30T13:31:25;3.60;;;1.38;;
53411;SDS011;39307;52.870;13.660;2022-08-30T13:33:53;3.30;;;1.60;;
53411;SDS011;39307;52.870;13.660;2022-08-30T13:36:20;5.20;;;2.15;;
53411;SDS011;39307;52.870;13.660;2022-08-30T13:38:50;4.85;;;2.47;;
53411;SDS011;39307;52.870;13.660;2022-08-30T13:41:17;4.22;;;2.25;;
53411;SDS011;39307;52.870;13.660;2022-08-30T13:43:43;3.95;;;2.33;;
53411;SDS011;39307;52.870;13.660;2022-08-30T13:46:09;4.38;;;2.10;;
53411;SDS011;39307;52.870;13.660;2022-08-30T13:48:37;2.80;;;1.67;;
53411;SDS011;39307;52.870;13.660;2022-08-30T13:51:03;3.67;;;2.00;;
53411;SDS011;39307;52.870;13.660;2022-08-30T13:53:29;2.70;;;1.60;;
53411;SDS011;39307;52.870;13.660;2022-08-30T13:55:56;3.20;;;1.67;;
53411;SDS011;39307;52.870;13.660;2022-08-30T13:58:22;2.67;;;1.55;;
53411;SDS011;39307;52.870;13.660;2022-08-30T14:00:48;3.05;;;1.63;;
53411;SDS011;39307;52.870;13.660;2022-08-30T14:03:15;4.57;;;1.63;;
53411;SDS011;39307;52.870;13.660;2022-08-30T14:05:42;2.60;;;1.38;;
53411;SDS011;39307;52.870;13.660;2022-08-30T14:08:10;2.78;;;1.40;;
53411;SDS011;39307;52.870;13.660;2022-08-30T14:10:38;2.87;;;1.40;;
53411;SDS011;39307;52.870;13.660;2022-08-30T14:13:04;2.20;;;1.20;;
53411;SDS011;39307;52.870;13.660;2022-08-30T14:15:31;2.47;;;1.30;;
53411;SDS011;39307;52.870;13.660;2022-08-30T14:17:58;3.70;;;1.20;;
53411;SDS011;39307;52.870;13.660;2022-08-30T14:20:24;2.70;;;1.27;;
53411;SDS011;39307;52.870;13.660;2022-08-30T14:22:50;2.93;;;1.10;;
53411;SDS011;39307;52.870;13.660;2022-08-30T14:25:16;2.08;;;1.10;;
53411;SDS011;39307;52.870;13.660;2022-08-30T14:27:42;2.58;;;1.10;;
53411;SDS011;39307;52.870;13.660;2022-08-30T14:30:09;2.63;;;1.13;;
53411;SDS011;39307;52.870;13.660;2022-08-30T14:32:35;2.40;;;1.10;;
53411;SDS011;39307;52.870;13.660;2022-08-30T14:35:02;3.08;;;1.30;;
53411;SDS011;39307;52.870;13.660;2022-08-30T14:37:28;2.60;;;1.27;;
53411;SDS011;39307;52.870;13.660;2022-08-30T14:39:55;2.55;;;1.17;;
53411;SDS011;39307;52.870;13.660;2022-08-30T14:42:21;3.70;;;1.20;;
53411;SDS011;39307;52.870;13.660;2022-08-30T14:44:47;2.50;;;1.20;;
53411;SDS011;39307;52.870;13.660;2022-08-30T14:47:13;2.77;;;1.57;;
53411;SDS011;39307;52.870;13.660;2022-08-30T14:49:40;2.53;;;1.20;;
53411;SDS011;39307;52.870;13.660;2022-08-30T14:52:06;4.63;;;1.47;;
53411;SDS011;39307;52.870;13.660;2022-08-30T14:54:32;3.10;;;1.27;;
53411;SDS011;39307;52.870;13.660;2022-08-30T14:56:58;2.17;;;1.13;;
53411;SDS011;39307;52.870;13.660;2022-08-30T14:59:25;3.30;;;1.40;;
53411;SDS011;39307;52.870;13.660;2022-08-30T15:01:51;3.60;;;1.27;;
53411;SDS011;39307;52.870;13.660;2022-08-30T15:04:18;2.42;;;1.17;;
53411;SDS011;39307;52.870;13.660;2022-08-30T15:06:46;3.55;;;1.95;;
53411;SDS011;39307;52.870;13.660;2022-08-30T15:09:14;2.78;;;1.27;;
53411;SDS011;39307;52.870;13.660;2022-08-30T15:11:42;2.38;;;1.20;;
53411;SDS011;39307;52.870;13.660;2022-08-30T15:14:09;2.33;;;1.20;;
53411;SDS011;39307;52.870;13.660;2022-08-30T15:16:36;2.88;;;1.10;;
53411;SDS011;39307;52.870;13.660;2022-08-30T15:19:04;2.70;;;1.20;;
53411;SDS011;39307;52.870;13.660;2022-08-30T15:21:33;3.22;;;1.10;;
53411;SDS011;39307;52.870;13.660;2022-08-30T15:24:01;3.03;;;1.37;;
53411;SDS011;39307;52.870;13.660;2022-08-30T15:26:28;3.08;;;1.00;;
53411;SDS011;39307;52.870;13.660;2022-08-30T15:28:55;5.45;;;1.30;;
53411;SDS011;39307;52.870;13.660;2022-08-30T15:31:22;2.30;;;1.00;;
53411;SDS011;39307;52.870;13.660;2022-08-30T15:33:51;3.03;;;1.20;;
53411;SDS011;39307;52.870;13.660;2022-08-30T15:36:17;4.03;;;1.80;;
53411;SDS011;39307;52.870;13.660;2022-08-30T15:38:44;6.68;;;2.47;;
53411;SDS011;39307;52.870;13.660;2022-08-30T15:41:11;3.22;;;1.55;;
53411;SDS011;39307;52.870;13.660;2022-08-30T15:43:38;2.22;;;1.10;;
53411;SDS011;39307;52.870;13.660;2022-08-30T15:46:12;3.03;;;1.05;;
53411;SDS011;39307;52.870;13.660;2022-08-30T15:48:42;2.00;;;0.82;;
53411;SDS011;39307;52.870;13.660;2022-08-30T15:51:10;2.13;;;0.80;;
53411;SDS011;39307;52.870;13.660;2022-08-30T15:53:37;1.50;;;0.60;;
53411;SDS011;39307;52.870;13.660;2022-08-30T15:56:03;2.05;;;0.80;;
53411;SDS011;39307;52.870;13.660;2022-08-30T15:58:30;1.30;;;0.60;;
53411;SDS011;39307;52.870;13.660;2022-08-30T16:00:56;3.03;;;1.45;;
53411;SDS011;39307;52.870;13.660;2022-08-30T16:03:22;3.65;;;1.40;;
53411;SDS011;39307;52.870;13.660;2022-08-30T16:05:50;3.10;;;1.20;;